createdAt,value
2018-12-18T00:00:12.189Z,10.87
2018-12-18T00:05:25.119Z,10.30
2018-12-18T00:10:35.071Z,13.13
2018-12-18T00:15:40.107Z,11.27
2018-12-18T00:20:45.018Z,8.77
2018-12-18T00:25:49.992Z,9.23
2018-12-18T00:30:55.352Z,9.50
2018-12-18T00:36:01.436Z,9.47
2018-12-18T00:41:06.577Z,9.17
2018-12-18T00:46:11.427Z,9.30
2018-12-18T00:51:16.375Z,8.27
2018-12-18T00:56:21.240Z,9.53
2018-12-18T01:01:26.138Z,8.97
2018-12-18T01:06:31.347Z,9.40
2018-12-18T01:11:36.183Z,9.27
2018-12-18T01:16:41.101Z,8.90
2018-12-18T01:21:45.840Z,9.57
2018-12-18T01:26:50.700Z,9.20
2018-12-18T01:31:55.562Z,9.80
2018-12-18T01:37:00.719Z,9.53
2018-12-18T01:42:05.646Z,8.77
2018-12-18T01:47:10.588Z,9.03
2018-12-18T01:52:15.468Z,8.83
2018-12-18T01:57:20.359Z,9.67
2018-12-18T02:02:25.353Z,8.33
2018-12-18T02:07:30.188Z,8.37
2018-12-18T02:12:35.130Z,9.83
2018-12-18T02:17:39.991Z,8.90
2018-12-18T02:22:44.904Z,8.73
2018-12-18T02:27:49.679Z,9.20
2018-12-18T02:32:54.608Z,9.77
2018-12-18T02:37:59.488Z,9.40
2018-12-18T02:43:04.425Z,10.23
2018-12-18T02:48:09.347Z,9.53
2018-12-18T02:53:14.196Z,9.87
2018-12-18T02:58:19.158Z,10.07
2018-12-18T03:03:24.218Z,8.93
2018-12-18T03:08:29.147Z,10.40
2018-12-18T03:13:34.064Z,9.73
2018-12-18T03:18:39.086Z,9.60
2018-12-18T03:23:44.020Z,9.30
2018-12-18T03:28:48.857Z,9.27
2018-12-18T03:33:53.811Z,9.53
2018-12-18T03:38:58.651Z,10.00
2018-12-18T03:44:03.709Z,8.83
2018-12-18T03:49:08.670Z,9.23
2018-12-18T03:54:13.490Z,10.07
2018-12-18T03:59:18.317Z,9.73
2018-12-18T04:04:23.159Z,9.97
2018-12-18T04:09:28.121Z,10.07
2018-12-18T04:14:33.157Z,10.13
2018-12-18T04:19:38.128Z,9.60
2018-12-18T04:24:43.166Z,10.00
2018-12-18T04:29:48.158Z,9.53
2018-12-18T04:34:53.058Z,9.70
2018-12-18T04:39:57.933Z,9.77
2018-12-18T04:45:02.972Z,10.27
2018-12-18T04:50:08.023Z,9.10
2018-12-18T04:55:12.959Z,9.33
2018-12-18T05:00:17.909Z,10.57
2018-12-18T05:05:22.932Z,9.77
2018-12-18T05:10:27.811Z,10.30
2018-12-18T05:15:32.550Z,9.30
2018-12-18T05:20:37.381Z,10.37
2018-12-18T05:25:42.247Z,10.17
2018-12-18T05:30:47.018Z,9.40
2018-12-18T05:35:51.938Z,9.23
2018-12-18T05:40:56.891Z,9.90
2018-12-18T05:46:01.742Z,9.87
2018-12-18T05:51:06.672Z,9.90
2018-12-18T05:56:11.611Z,10.60
2018-12-18T06:01:16.566Z,11.07
2018-12-18T06:06:21.519Z,11.37
2018-12-18T06:11:26.240Z,16.23
2018-12-18T06:16:31.011Z,11.07
2018-12-18T06:21:35.928Z,12.27
2018-12-18T06:26:40.791Z,12.17
2018-12-18T06:31:45.872Z,12.57
2018-12-18T06:36:50.722Z,12.73
2018-12-18T06:41:55.947Z,12.10
2018-12-18T06:47:00.826Z,12.73
2018-12-18T06:52:05.849Z,11.57
2018-12-18T06:57:10.803Z,11.97
2018-12-18T07:02:15.653Z,12.47
2018-12-18T07:07:20.687Z,12.93
2018-12-18T07:12:25.525Z,11.43
2018-12-18T07:17:30.373Z,13.80
2018-12-18T07:22:35.439Z,11.43
2018-12-18T07:27:40.376Z,11.37
2018-12-18T07:32:45.326Z,10.53
2018-12-18T07:37:50.264Z,10.70
2018-12-18T07:42:55.015Z,12.23
2018-12-18T07:47:59.853Z,11.43
2018-12-18T07:53:04.823Z,10.77
2018-12-18T07:58:09.749Z,11.57
2018-12-18T08:03:14.794Z,12.13
2018-12-18T08:08:19.554Z,10.33
2018-12-18T08:13:24.612Z,14.03
2018-12-18T08:18:29.548Z,18.80
2018-12-18T08:23:34.482Z,11.27
2018-12-18T08:28:39.450Z,20.13
2018-12-18T08:33:44.393Z,10.73
2018-12-18T08:38:49.437Z,12.70
2018-12-18T08:43:54.395Z,12.13
2018-12-18T08:49:00.224Z,11.83
2018-12-18T08:54:05.327Z,12.77
2018-12-18T08:59:10.356Z,11.87
2018-12-18T09:04:15.286Z,11.83
2018-12-18T09:09:21.383Z,11.50
2018-12-18T09:14:26.278Z,11.90
2018-12-18T09:19:31.628Z,11.53
2018-12-18T09:24:36.640Z,11.67
2018-12-18T09:29:41.496Z,13.20
2018-12-18T09:34:46.551Z,11.53
2018-12-18T09:39:51.499Z,11.23
2018-12-18T09:44:56.448Z,11.40
2018-12-18T09:50:01.281Z,10.63
2018-12-18T09:55:07.999Z,10.80
2018-12-18T10:00:13.216Z,10.23
2018-12-18T10:05:18.188Z,9.50
2018-12-18T10:10:23.142Z,9.90
2018-12-18T10:15:28.491Z,9.27
2018-12-18T10:20:33.427Z,20.33
2018-12-18T10:25:38.257Z,18.07
2018-12-18T10:30:43.188Z,7.87
2018-12-18T10:35:48.083Z,9.00
2018-12-18T10:40:53.816Z,8.53
2018-12-18T10:45:58.891Z,8.50
2018-12-18T10:51:03.823Z,14.40
2018-12-18T10:56:08.708Z,10.40
2018-12-18T11:01:18.610Z,11.90
2018-12-18T11:06:23.494Z,9.33
2018-12-18T11:11:28.504Z,13.43
2018-12-18T11:16:37.353Z,8.07
2018-12-18T11:21:40.383Z,8.87
2018-12-18T11:26:45.327Z,7.77
2018-12-18T11:31:50.155Z,31.83
2018-12-18T11:36:54.987Z,12.47
2018-12-18T11:42:00.204Z,15.20
2018-12-18T11:47:05.131Z,8.70
2018-12-18T11:52:10.196Z,9.37
2018-12-18T11:57:15.087Z,8.07
2018-12-18T12:02:19.874Z,8.27
2018-12-18T12:07:25.944Z,11.77
2018-12-18T12:12:30.989Z,7.07
2018-12-18T12:17:36.081Z,8.50
2018-12-18T12:22:40.955Z,7.83
2018-12-18T12:27:50.894Z,7.80
2018-12-18T12:32:55.679Z,7.23
2018-12-18T12:38:00.522Z,7.10
2018-12-18T12:43:05.354Z,6.80
2018-12-18T12:48:12.553Z,7.67
2018-12-18T12:53:17.399Z,5.87
2018-12-18T12:58:22.177Z,6.60
2018-12-18T13:03:27.032Z,5.47
2018-12-18T13:08:31.935Z,6.33
2018-12-18T13:13:36.805Z,6.60
2018-12-18T13:18:41.761Z,5.73
2018-12-18T13:23:46.802Z,5.60
2018-12-18T13:28:51.653Z,5.93
2018-12-18T13:33:56.505Z,5.20
2018-12-18T13:39:01.432Z,5.60
2018-12-18T13:44:06.285Z,5.90
2018-12-18T13:49:11.045Z,5.97
2018-12-18T13:54:15.860Z,5.10
2018-12-18T13:59:20.608Z,5.17
2018-12-18T14:04:25.567Z,4.63
2018-12-18T14:09:30.416Z,8.07
2018-12-18T14:14:35.362Z,11.27
2018-12-18T14:19:40.224Z,9.37
2018-12-18T14:24:45.250Z,8.53
2018-12-18T14:29:50.104Z,7.20
2018-12-18T14:34:55.059Z,6.57
2018-12-18T14:40:00.106Z,5.83
2018-12-18T14:45:05.277Z,6.10
2018-12-18T14:50:10.382Z,6.27
2018-12-18T14:55:15.265Z,6.47
2018-12-18T15:00:20.093Z,6.63
2018-12-18T15:05:25.253Z,6.40
2018-12-18T15:10:33.132Z,6.97
2018-12-18T15:15:38.221Z,7.57
2018-12-18T15:20:43.276Z,8.60
2018-12-18T15:25:48.228Z,7.83
2018-12-18T15:30:53.682Z,9.63
2018-12-18T15:35:59.440Z,9.27
2018-12-18T15:41:04.541Z,9.60
2018-12-18T15:46:09.432Z,11.90
2018-12-18T15:51:14.277Z,11.83
2018-12-18T15:56:19.025Z,8.97
2018-12-18T16:01:23.915Z,12.60
2018-12-18T16:06:28.937Z,23.80
2018-12-18T16:11:33.758Z,16.23
2018-12-18T16:16:39.692Z,13.90
2018-12-18T16:21:45.056Z,12.57
2018-12-18T16:26:49.952Z,17.70
2018-12-18T16:31:54.909Z,26.67
2018-12-18T16:36:59.761Z,31.03
2018-12-18T16:42:04.796Z,36.53
2018-12-18T16:47:09.752Z,14.60
2018-12-18T16:52:14.488Z,15.63
2018-12-18T16:57:19.437Z,12.30
2018-12-18T17:02:24.421Z,13.57
2018-12-18T17:07:29.820Z,12.37
2018-12-18T17:12:35.847Z,15.53
2018-12-18T17:17:40.738Z,14.47
2018-12-18T17:22:45.719Z,12.00
2018-12-18T17:27:50.645Z,14.00
2018-12-18T17:32:55.401Z,12.83
2018-12-18T17:38:00.292Z,13.77
2018-12-18T17:43:05.099Z,13.27
2018-12-18T17:48:10.061Z,16.20
2018-12-18T17:53:15.005Z,17.93
2018-12-18T17:58:19.839Z,14.83
2018-12-18T18:03:24.829Z,18.97
2018-12-18T18:08:29.648Z,19.97
2018-12-18T18:13:34.521Z,19.67
2018-12-18T18:18:39.448Z,18.90
2018-12-18T18:23:44.281Z,23.90
2018-12-18T18:28:49.213Z,19.60
2018-12-18T18:33:54.163Z,23.43
2018-12-18T18:38:59.001Z,22.33
2018-12-18T18:44:03.861Z,22.63
2018-12-18T18:49:08.699Z,24.97
2018-12-18T18:54:13.651Z,26.43
2018-12-18T18:59:19.509Z,25.33
2018-12-18T19:04:24.493Z,25.73
2018-12-18T19:09:29.517Z,27.33
2018-12-18T19:14:34.379Z,27.67
2018-12-18T19:19:39.205Z,28.13
2018-12-18T19:24:44.159Z,26.20
2018-12-18T19:29:49.528Z,23.43
2018-12-18T19:34:54.666Z,21.87
2018-12-18T19:39:59.668Z,22.30
2018-12-18T19:45:05.192Z,21.70
2018-12-18T19:50:10.142Z,20.27
2018-12-18T19:55:15.081Z,20.63
2018-12-18T20:00:21.248Z,19.90
2018-12-18T20:05:26.083Z,20.03
2018-12-18T20:10:30.930Z,20.13
2018-12-18T20:15:35.852Z,19.37
2018-12-18T20:20:40.717Z,20.17
2018-12-18T20:25:45.877Z,20.03
2018-12-18T20:30:50.826Z,19.60
2018-12-18T20:35:55.881Z,18.80
2018-12-18T20:41:00.865Z,19.00
2018-12-18T20:46:05.734Z,19.53
2018-12-18T20:51:10.746Z,19.20
2018-12-18T20:56:15.673Z,19.10
2018-12-18T21:01:20.636Z,17.90
2018-12-18T21:06:25.698Z,17.33
2018-12-18T21:11:30.639Z,19.83
2018-12-18T21:16:35.576Z,18.17
2018-12-18T21:21:40.499Z,19.10
2018-12-18T21:26:45.479Z,18.57
2018-12-18T21:31:50.392Z,19.63
2018-12-18T21:36:55.368Z,19.23
2018-12-18T21:42:00.332Z,20.40
2018-12-18T21:47:06.092Z,19.23
2018-12-18T21:52:11.834Z,23.97
2018-12-18T21:57:16.769Z,21.87
2018-12-18T22:02:21.645Z,20.93
2018-12-18T22:07:26.825Z,19.33
2018-12-18T22:12:31.721Z,21.60
2018-12-18T22:17:36.559Z,23.27
2018-12-18T22:22:41.429Z,19.63
2018-12-18T22:27:47.133Z,18.93
2018-12-18T22:32:52.036Z,18.83
2018-12-18T22:37:56.957Z,19.07
2018-12-18T22:43:01.928Z,19.57
2018-12-18T22:48:06.895Z,22.87
2018-12-18T22:53:11.840Z,22.30
2018-12-18T22:58:16.706Z,24.00
2018-12-18T23:03:21.735Z,23.23
2018-12-18T23:08:26.720Z,21.20
2018-12-18T23:13:31.631Z,21.53
2018-12-18T23:18:36.499Z,22.13
2018-12-18T23:23:41.407Z,22.07
2018-12-18T23:28:46.276Z,20.40
2018-12-18T23:33:51.190Z,17.47
2018-12-18T23:38:57.015Z,18.87
2018-12-18T23:44:02.227Z,18.43
2018-12-18T23:49:07.324Z,23.13
2018-12-18T23:54:12.127Z,63.97
2018-12-18T23:59:17.181Z,33.60
